createdAt,value
2023-03-06T00:03:31.784Z,41.10
2023-03-06T00:13:33.629Z,41.80
2023-03-06T00:23:31.867Z,35.70
2023-03-06T00:33:33.172Z,42.10
2023-03-06T00:43:32.218Z,43.30
2023-03-06T00:53:34.368Z,40.80
2023-03-06T01:03:32.603Z,35.90
2023-03-06T01:13:32.897Z,40.90
2023-03-06T01:23:33.713Z,41.20
2023-03-06T01:33:33.274Z,37.40
2023-03-06T01:43:33.354Z,32.70
2023-03-06T01:53:33.737Z,41.20
2023-03-06T02:03:33.784Z,34.00
2023-03-06T02:13:34.221Z,32.80
2023-03-06T02:23:34.280Z,40.10
2023-03-06T02:33:34.619Z,44.40
2023-03-06T02:43:34.679Z,32.90
2023-03-06T02:53:34.969Z,41.90
2023-03-06T03:03:35.022Z,40.60
2023-03-06T03:13:35.419Z,33.00
2023-03-06T03:23:35.455Z,41.50
2023-03-06T03:33:35.786Z,40.70
2023-03-06T03:43:35.826Z,43.70
2023-03-06T03:53:37.182Z,44.70
2023-03-06T04:03:36.232Z,42.00
2023-03-06T04:13:36.532Z,35.90
2023-03-06T04:23:36.551Z,37.00
2023-03-06T04:33:36.909Z,33.30
2023-03-06T04:43:36.933Z,33.10
2023-03-06T04:53:37.267Z,34.50
2023-03-06T05:03:37.300Z,35.50
2023-03-06T05:13:37.747Z,43.30
2023-03-06T05:23:37.802Z,44.10
2023-03-06T05:33:38.209Z,42.70
2023-03-06T05:43:38.245Z,43.60
2023-03-06T05:53:38.715Z,37.90
2023-03-06T06:03:38.604Z,36.50
2023-03-06T06:13:41.929Z,39.80
2023-03-06T06:23:38.760Z,34.10
2023-03-06T06:33:39.014Z,47.70
2023-03-06T06:43:39.249Z,44.20
2023-03-06T06:53:39.495Z,41.80
2023-03-06T07:03:39.598Z,40.70
2023-03-06T07:13:39.659Z,41.50
2023-03-06T07:23:39.904Z,40.00
2023-03-06T07:33:40.236Z,48.00
2023-03-06T07:43:40.263Z,46.80
2023-03-06T07:53:40.605Z,40.90
2023-03-06T08:03:40.649Z,34.30
2023-03-06T08:13:40.786Z,48.40
2023-03-06T08:23:40.820Z,39.60
2023-03-06T08:33:41.135Z,43.10
2023-03-06T08:43:41.182Z,42.70
2023-03-06T08:53:43.645Z,45.50
2023-03-06T09:03:41.510Z,51.00
2023-03-06T09:13:41.873Z,46.50
2023-03-06T09:23:41.928Z,47.40
2023-03-06T09:33:42.255Z,46.80
2023-03-06T09:43:42.294Z,43.80
2023-03-06T09:53:42.630Z,42.50
2023-03-06T10:03:42.658Z,43.30
2023-03-06T10:13:42.991Z,40.70
2023-03-06T10:23:43.023Z,43.40
2023-03-06T10:33:43.365Z,40.50
2023-03-06T10:43:43.421Z,37.30
2023-03-06T10:53:43.749Z,27.60
2023-03-06T11:03:43.780Z,19.70
2023-03-06T11:13:44.209Z,20.60
2023-03-06T11:23:44.239Z,27.50
2023-03-06T11:33:44.594Z,15.90
2023-03-06T11:43:44.631Z,17.10
2023-03-06T11:53:44.951Z,15.50
2023-03-06T12:03:44.986Z,15.00
2023-03-06T12:13:45.316Z,15.80
2023-03-06T12:23:45.330Z,15.40
2023-03-06T12:33:45.585Z,15.50
2023-03-06T12:43:45.809Z,17.70
2023-03-06T12:53:48.067Z,15.90
2023-03-06T13:03:46.301Z,16.00
2023-03-06T13:13:47.683Z,15.80
2023-03-06T13:23:46.709Z,15.20
2023-03-06T13:33:47.054Z,17.30
2023-03-06T13:43:47.088Z,8.90
2023-03-06T13:53:47.381Z,17.10
2023-03-06T14:03:47.428Z,14.00
2023-03-06T14:13:47.967Z,14.90
2023-03-06T14:23:47.805Z,15.10
2023-03-06T14:33:48.210Z,14.80
2023-03-06T14:43:48.277Z,14.90
2023-03-06T14:53:48.582Z,14.90
2023-03-06T15:03:49.621Z,15.30
2023-03-06T15:13:48.945Z,14.80
2023-03-06T15:23:49.066Z,15.20
2023-03-06T15:33:49.202Z,15.60
2023-03-06T15:43:49.250Z,15.30
2023-03-06T15:53:50.255Z,14.80
2023-03-06T16:03:49.683Z,15.40
2023-03-06T16:13:49.768Z,14.40
2023-03-06T16:23:50.075Z,15.10
2023-03-06T16:33:52.161Z,14.30
2023-03-06T16:43:50.411Z,15.00
2023-03-06T16:53:50.700Z,16.50
2023-03-06T17:03:50.968Z,17.70
2023-03-06T17:13:51.162Z,15.40
2023-03-06T17:23:51.113Z,20.50
2023-03-06T17:33:51.706Z,15.50
2023-03-06T17:43:51.572Z,17.90
2023-03-06T17:53:52.077Z,18.40
2023-03-06T18:03:51.982Z,18.50
2023-03-06T18:13:54.169Z,18.10
2023-03-06T18:23:52.196Z,18.20
2023-03-06T18:33:52.571Z,14.70
2023-03-06T18:43:52.770Z,18.30
2023-03-06T18:53:53.091Z,34.90
2023-03-06T19:03:53.236Z,32.70
2023-03-06T19:14:08.190Z,15.00
2023-03-06T19:23:59.621Z,14.10
2023-03-06T19:33:53.643Z,14.50
2023-03-06T19:43:53.899Z,16.50
2023-03-06T19:53:58.125Z,15.50
2023-03-06T20:03:54.166Z,14.40
2023-03-06T20:13:54.489Z,12.80
2023-03-06T20:23:54.490Z,13.70
2023-03-06T20:33:55.777Z,32.40
2023-03-06T20:43:54.946Z,16.40
2023-03-06T20:53:55.339Z,14.50
2023-03-06T21:03:55.252Z,13.00
2023-03-06T21:13:59.067Z,24.10
2023-03-06T21:23:55.779Z,13.30
2023-03-06T21:33:55.797Z,13.40
2023-03-06T21:43:55.837Z,13.40
2023-03-06T21:53:57.080Z,14.60
2023-03-06T22:03:56.325Z,15.90
2023-03-06T22:13:56.622Z,13.80
2023-03-06T22:23:56.858Z,14.20
2023-03-06T22:33:57.102Z,15.40
2023-03-06T22:43:57.329Z,14.90
2023-03-06T22:53:58.596Z,14.80
2023-03-06T23:03:57.862Z,14.80
2023-03-06T23:13:57.939Z,15.50
2023-03-06T23:23:58.184Z,14.60
2023-03-06T23:33:58.529Z,16.70
2023-03-06T23:43:58.558Z,14.90
2023-03-06T23:53:58.898Z,15.80
